Time;durP1;ratioP1;P1;durP2;ratioP2;P2;SDS_P1;SDS_P2;PMS_P1;PMS_P2;Temp;Humidity;BMP_temperature;BMP_pressure;BME280_temperature;BME280_humidity;BME280_pressure;Samples;Min_cycle;Max_cycle;Signal;HPM_P1;HPM_P2
2023/02/24 00:01:39;;;;;;;3.65;2.00;;;2.00;99.90;;;;;;4961189;28;20073;-73
2023/02/24 00:04:08;;;;;;;1.73;1.25;;;2.00;99.90;;;;;;4974384;28;20047;-74
2023/02/24 00:06:37;;;;;;;4.22;2.10;;;2.00;99.90;;;;;;4958544;28;20066;-74
2023/02/24 00:09:17;;;;;;;3.42;1.63;;;1.90;99.90;;;;;;4958061;28;20070;-74
2023/02/24 00:11:46;;;;;;;3.45;2.72;;;1.90;99.90;;;;;;4959892;28;20728;-74
2023/02/24 00:14:17;;;;;;;2.85;1.58;;;1.90;99.90;;;;;;4951473;28;20098;-74
2023/02/24 00:16:45;;;;;;;2.97;1.95;;;1.90;99.90;;;;;;4957272;28;20427;-74
2023/02/24 00:19:15;;;;;;;5.35;2.13;;;1.80;99.90;;;;;;4942442;28;20066;-74
2023/02/24 00:21:42;;;;;;;2.53;1.48;;;1.70;99.90;;;;;;4939763;28;20086;-74
2023/02/24 00:24:09;;;;;;;2.28;1.50;;;1.70;99.90;;;;;;4983067;28;20070;-74
2023/02/24 00:26:36;;;;;;;4.00;1.88;;;1.70;99.90;;;;;;4941953;28;20078;-74
2023/02/24 00:29:04;;;;;;;3.25;1.60;;;1.70;99.90;;;;;;4958404;28;20515;-74
2023/02/24 00:31:31;;;;;;;2.78;1.88;;;1.70;99.90;;;;;;4954702;28;20051;-74
2023/02/24 00:33:59;;;;;;;2.58;1.50;;;1.80;99.90;;;;;;4937854;28;20050;-74
2023/02/24 00:36:27;;;;;;;3.25;1.67;;;1.70;99.90;;;;;;4957358;28;20491;-74
2023/02/24 00:38:56;;;;;;;2.90;1.67;;;1.70;99.90;;;;;;4957653;28;20137;-74
2023/02/24 00:41:28;;;;;;;2.65;1.65;;;1.70;99.90;;;;;;4961255;28;20055;-74
2023/02/24 00:44:06;;;;;;;4.40;1.85;;;1.60;99.90;;;;;;4949161;28;20054;-74
2023/02/24 00:46:35;;;;;;;2.78;1.65;;;1.60;99.90;;;;;;4958596;28;20046;-73
2023/02/24 00:49:04;;;;;;;2.75;1.85;;;1.50;99.90;;;;;;4959042;28;20050;-73
2023/02/24 00:51:34;;;;;;;3.42;1.83;;;1.40;99.90;;;;;;4958335;28;20069;-74
2023/02/24 00:54:02;;;;;;;2.42;1.52;;;1.40;99.90;;;;;;4959390;28;20106;-74
2023/02/24 00:56:29;;;;;;;2.42;1.65;;;1.40;99.90;;;;;;4957906;28;20150;-74
2023/02/24 00:58:57;;;;;;;3.05;1.60;;;1.40;99.90;;;;;;4958968;28;20117;-73
2023/02/24 01:01:26;;;;;;;2.45;1.67;;;1.40;99.90;;;;;;4943022;28;20722;-74
2023/02/24 01:03:53;;;;;;;2.85;1.80;;;1.40;99.90;;;;;;4951684;28;20058;-73
2023/02/24 01:06:21;;;;;;;3.33;1.52;;;1.40;99.90;;;;;;4950296;28;20487;-74
2023/02/24 01:08:49;;;;;;;2.03;1.50;;;1.40;99.90;;;;;;4949004;28;20074;-74
2023/02/24 01:14:08;;;;;;;4.13;2.17;;;1.40;99.90;;;;;;4974500;28;20055;-74
2023/02/24 01:16:36;;;;;;;3.63;1.77;;;1.40;99.90;;;;;;4971590;28;20451;-73
2023/02/24 01:19:06;;;;;;;3.58;1.90;;;1.30;99.90;;;;;;4942033;28;20414;-74
2023/02/24 01:21:33;;;;;;;2.92;1.80;;;1.40;99.90;;;;;;4956172;28;20054;-73
2023/02/24 01:24:00;;;;;;;3.25;1.90;;;1.30;99.90;;;;;;4951150;28;20050;-74
2023/02/24 01:26:27;;;;;;;2.40;1.63;;;1.30;99.90;;;;;;4974322;28;20050;-74
2023/02/24 01:28:55;;;;;;;2.45;1.58;;;1.20;99.90;;;;;;4958081;28;20058;-74
2023/02/24 01:31:22;;;;;;;2.38;1.70;;;1.20;99.90;;;;;;4957293;28;20086;-74
2023/02/24 01:33:50;;;;;;;4.28;1.60;;;1.20;99.90;;;;;;4953084;28;20053;-74
2023/02/24 01:36:26;;;;;;;2.83;1.60;;;1.10;99.90;;;;;;4960269;28;20209;-74
2023/02/24 01:38:53;;;;;;;2.75;1.55;;;1.20;99.90;;;;;;4940951;28;20782;-74
2023/02/24 01:41:21;;;;;;;2.75;1.70;;;1.10;99.90;;;;;;4956671;28;20055;-74
2023/02/24 01:44:02;;;;;;;3.35;1.83;;;1.10;99.90;;;;;;4967006;28;20047;-74
2023/02/24 01:46:31;;;;;;;3.13;1.55;;;1.10;99.90;;;;;;4957080;28;20409;-74
2023/02/24 01:49:07;;;;;;;3.90;1.70;;;1.10;99.90;;;;;;4958065;28;20446;-74
2023/02/24 01:51:35;;;;;;;2.33;1.70;;;1.20;99.90;;;;;;4956836;28;20469;-74
2023/02/24 01:54:03;;;;;;;4.70;2.17;;;1.10;99.90;;;;;;4965132;28;20702;-73
2023/02/24 01:56:29;;;;;;;2.15;1.48;;;1.10;99.90;;;;;;4973633;28;20047;-74
2023/02/24 01:58:57;;;;;;;2.75;1.65;;;1.10;99.90;;;;;;4959083;28;20059;-73
2023/02/24 02:01:24;;;;;;;2.67;1.85;;;1.10;99.90;;;;;;4956939;28;20121;-74
2023/02/24 02:03:51;;;;;;;2.80;1.50;;;1.10;99.90;;;;;;4968238;28;20046;-73
2023/02/24 02:06:18;;;;;;;3.22;1.65;;;1.20;99.90;;;;;;4976400;28;20146;-74
2023/02/24 02:08:46;;;;;;;2.45;1.60;;;1.00;99.90;;;;;;4941423;28;20137;-74
2023/02/24 02:11:19;;;;;;;2.20;1.50;;;0.90;99.90;;;;;;4956957;28;20054;-74
2023/02/24 02:13:49;;;;;;;;;;;1.00;99.90;;;;;;4964649;28;20078;-74
2023/02/24 02:16:31;;;;;;;3.40;1.63;;;1.00;99.90;;;;;;4975578;28;19933;-73
2023/02/24 02:19:13;;;;;;;4.15;1.58;;;1.00;99.90;;;;;;4961283;28;20050;-73
2023/02/24 02:21:43;;;;;;;2.03;1.10;;;1.00;99.90;;;;;;4945036;28;20047;-73
2023/02/24 02:24:18;;;;;;;3.00;1.83;;;1.10;99.90;;;;;;4966415;28;20545;-74
2023/02/24 02:27:03;;;;;;;2.25;1.33;;;1.10;99.90;;;;;;4974389;28;20082;-73
2023/02/24 02:29:36;;;;;;;2.35;1.48;;;1.10;99.90;;;;;;4960433;28;20447;-74
2023/02/24 02:32:15;;;;;;;1.33;1.00;;;1.00;99.90;;;;;;4963608;28;20074;-74
2023/02/24 02:35:01;;;;;;;2.13;1.48;;;1.00;99.90;;;;;;4961597;28;20054;-73
2023/02/24 02:37:45;;;;;;;3.25;1.50;;;1.10;99.90;;;;;;4962041;28;20555;-74
2023/02/24 02:40:22;;;;;;;2.30;1.50;;;1.00;99.90;;;;;;4949954;28;20510;-73
2023/02/24 02:43:18;;;;;;;3.17;1.50;;;1.10;99.90;;;;;;4972530;28;20054;-74
2023/02/24 02:46:09;;;;;;;2.70;1.60;;;1.10;99.90;;;;;;4954859;28;20054;-74
2023/02/24 02:48:47;;;;;;;3.75;1.48;;;1.00;99.90;;;;;;4951378;28;20113;-74
2023/02/24 02:51:19;;;;;;;2.10;1.50;;;1.00;99.90;;;;;;4948313;28;20065;-74
2023/02/24 02:53:48;;;;;;;1.83;1.20;;;1.10;99.90;;;;;;4967531;28;20065;-74
2023/02/24 02:56:17;;;;;;;2.63;1.67;;;1.10;99.90;;;;;;4965697;28;20046;-74
2023/02/24 02:58:47;;;;;;;2.95;1.65;;;1.00;99.90;;;;;;4958669;28;20097;-74
2023/02/24 03:01:15;;;;;;;3.15;1.88;;;1.00;99.90;;;;;;4616692;28;10000316;-74
2023/02/24 03:03:45;;;;;;;3.78;1.88;;;1.00;99.90;;;;;;4961301;28;20047;-74
2023/02/24 03:06:22;;;;;;;2.38;1.45;;;1.00;99.90;;;;;;4947244;28;20051;-74
2023/02/24 03:09:14;;;;;;;3.20;1.40;;;1.00;99.90;;;;;;4946407;29;20142;-74
2023/02/24 03:11:42;;;;;;;2.58;1.33;;;1.00;99.90;;;;;;4971629;28;20506;-74
2023/02/24 03:14:11;;;;;;;1.88;1.33;;;1.00;99.90;;;;;;4979782;28;20043;-75
2023/02/24 03:16:42;;;;;;;2.63;1.60;;;1.00;99.90;;;;;;4982012;28;20046;-74
2023/02/24 03:19:09;;;;;;;2.10;1.63;;;1.00;99.90;;;;;;4950380;28;20061;-74
2023/02/24 03:21:38;;;;;;;3.72;1.77;;;1.10;99.90;;;;;;4950199;28;20054;-74
2023/02/24 03:24:05;;;;;;;2.00;1.48;;;1.00;99.90;;;;;;4967622;28;20700;-74
2023/02/24 03:26:50;;;;;;;2.53;1.63;;;1.00;99.90;;;;;;4963904;28;20070;-74
2023/02/24 03:29:24;;;;;;;2.30;1.50;;;1.00;99.90;;;;;;4964449;28;20483;-74
2023/02/24 03:32:25;;;;;;;3.00;1.50;;;0.90;99.90;;;;;;4966771;28;20553;-74
2023/02/24 03:35:09;;;;;;;3.47;1.73;;;0.90;99.90;;;;;;4951588;28;20078;-75
2023/02/24 03:37:36;;;;;;;5.25;2.28;;;0.80;99.90;;;;;;4965883;28;20054;-74
2023/02/24 03:40:10;;;;;;;2.95;1.73;;;0.90;99.90;;;;;;4962629;28;20076;-74
2023/02/24 03:42:38;;;;;;;2.40;1.50;;;0.90;99.90;;;;;;4958976;28;20047;-74
2023/02/24 03:45:06;;;;;;;1.95;1.35;;;0.90;99.90;;;;;;4964962;28;20082;-74
2023/02/24 03:47:33;;;;;;;3.05;1.92;;;0.90;99.90;;;;;;4966530;28;20051;-74
2023/02/24 03:50:00;;;;;;;2.38;1.50;;;1.00;99.90;;;;;;4964866;28;20054;-74
2023/02/24 03:52:40;;;;;;;3.28;1.95;;;1.00;99.90;;;;;;4971081;28;20064;-74
2023/02/24 03:55:28;;;;;;;2.20;1.23;;;1.00;99.90;;;;;;4963088;28;20141;-74
2023/02/24 03:58:17;;;;;;;3.10;1.52;;;0.90;99.90;;;;;;4954428;28;20053;-74
2023/02/24 04:01:05;;;;;;;2.60;1.33;;;1.00;99.90;;;;;;4945289;28;20082;-74
2023/02/24 04:03:35;;;;;;;1.60;1.27;;;0.90;99.90;;;;;;4980996;28;20082;-74
2023/02/24 04:06:37;;;;;;;2.92;1.30;;;1.00;99.90;;;;;;4947790;28;20078;-74
2023/02/24 04:09:16;;;;;;;2.47;1.55;;;1.00;99.90;;;;;;4949413;28;20057;-74
2023/02/24 04:11:55;;;;;;;3.22;1.58;;;1.00;99.90;;;;;;4948985;28;20129;-74
2023/02/24 04:14:33;;;;;;;3.20;1.40;;;1.00;99.90;;;;;;4965466;28;20074;-74
2023/02/24 04:17:07;;;;;;;2.80;1.30;;;1.00;99.90;;;;;;4931470;28;20054;-74
2023/02/24 04:19:37;;;;;;;2.92;1.30;;;1.00;99.90;;;;;;4964572;28;20042;-74
2023/02/24 04:22:05;;;;;;;1.73;1.05;;;1.00;99.90;;;;;;4948900;28;20617;-74
2023/02/24 04:24:32;;;;;;;3.80;1.52;;;1.00;99.90;;;;;;4948195;28;20055;-75
2023/02/24 04:27:00;;;;;;;2.03;1.15;;;1.10;99.90;;;;;;4946383;28;20097;-74
2023/02/24 04:29:34;;;;;;;2.38;1.40;;;1.10;99.90;;;;;;4945124;28;20134;-74
2023/02/24 04:32:06;;;;;;;1.77;1.33;;;1.00;99.90;;;;;;4966856;28;20051;-74
2023/02/24 04:34:33;;;;;;;2.28;1.23;;;1.10;99.90;;;;;;4982191;28;20338;-74
2023/02/24 04:37:01;;;;;;;2.88;1.40;;;1.10;99.90;;;;;;4950702;28;20039;-74
2023/02/24 04:39:28;;;;;;;1.90;1.20;;;1.10;99.90;;;;;;4962552;28;20133;-74
2023/02/24 04:41:56;;;;;;;2.05;1.33;;;1.10;99.90;;;;;;4963443;28;20053;-74
2023/02/24 04:44:24;;;;;;;3.20;1.50;;;1.20;99.90;;;;;;4976896;28;20047;-75
2023/02/24 04:46:50;;;;;;;2.20;1.20;;;1.20;99.90;;;;;;4965147;28;20086;-74
2023/02/24 04:49:18;;;;;;;2.38;1.67;;;1.30;99.90;;;;;;4965164;28;20066;-74
2023/02/24 04:51:45;;;;;;;1.77;1.40;;;1.30;99.90;;;;;;4965060;28;20140;-75
2023/02/24 04:54:16;;;;;;;2.50;1.13;;;1.40;99.90;;;;;;4951271;28;20158;-74
2023/02/24 04:56:47;;;;;;;2.40;1.73;;;1.40;99.90;;;;;;4945931;29;20077;-74
2023/02/24 04:59:14;;;;;;;3.08;1.52;;;1.50;99.90;;;;;;4957740;28;20082;-74
2023/02/24 05:01:43;;;;;;;3.15;1.52;;;1.60;99.90;;;;;;4945405;28;20047;-75
2023/02/24 05:04:10;;;;;;;1.63;1.20;;;1.60;99.90;;;;;;4981254;28;20081;-73
2023/02/24 05:06:42;;;;;;;2.63;1.20;;;1.60;99.90;;;;;;4984586;28;20061;-74
2023/02/24 05:09:18;;;;;;;2.95;1.50;;;1.70;99.90;;;;;;4982624;28;20702;-74
2023/02/24 05:11:47;;;;;;;1.58;1.23;;;1.80;99.90;;;;;;4986875;28;20554;-74
2023/02/24 05:14:16;;;;;;;2.35;1.35;;;1.80;99.90;;;;;;4979066;28;20150;-75
2023/02/24 05:16:44;;;;;;;3.13;1.55;;;1.90;99.90;;;;;;4980324;28;20042;-74
2023/02/24 05:21:57;;;;;;;1.98;1.10;;;1.90;99.90;;;;;;4964692;28;20154;-74
2023/02/24 05:24:26;;;;;;;1.85;1.10;;;2.00;99.90;;;;;;4983506;28;20062;-74
2023/02/24 05:26:58;;;;;;;1.75;1.02;;;2.00;99.90;;;;;;4964268;28;20050;-74
2023/02/24 05:29:26;;;;;;;1.73;1.23;;;2.00;99.90;;;;;;4949227;28;20439;-75
2023/02/24 05:31:58;;;;;;;2.05;1.25;;;2.10;99.90;;;;;;4963686;28;20063;-75
2023/02/24 05:34:29;;;;;;;1.88;1.17;;;2.20;99.90;;;;;;4956307;28;20137;-75
2023/02/24 05:36:57;;;;;;;2.13;1.15;;;2.20;99.90;;;;;;4948246;28;20063;-75
2023/02/24 05:39:25;;;;;;;3.05;1.73;;;2.30;99.90;;;;;;4942643;28;20513;-74
2023/02/24 05:41:55;;;;;;;1.90;1.17;;;2.30;99.90;;;;;;4961693;28;20849;-74
2023/02/24 05:44:24;;;;;;;1.50;1.10;;;2.40;99.90;;;;;;4956074;28;20158;-75
2023/02/24 05:46:57;;;;;;;1.80;1.15;;;2.40;99.90;;;;;;4948032;28;20058;-74
2023/02/24 05:49:27;;;;;;;2.20;1.27;;;2.40;99.90;;;;;;4963452;28;20047;-74
2023/02/24 05:51:55;;;;;;;3.17;1.60;;;2.40;99.90;;;;;;4951398;28;20502;-74
2023/02/24 05:54:27;;;;;;;2.10;1.30;;;2.50;99.90;;;;;;4949843;28;20055;-75
2023/02/24 05:56:56;;;;;;;1.98;1.67;;;2.50;99.90;;;;;;4936900;28;20054;-75
2023/02/24 05:59:23;;;;;;;2.17;1.20;;;2.50;99.90;;;;;;4981560;28;20089;-74
2023/02/24 06:01:52;;;;;;;1.50;1.13;;;2.60;99.90;;;;;;4978193;28;20058;-74
2023/02/24 06:04:19;;;;;;;2.28;1.48;;;2.60;99.90;;;;;;4964170;28;20051;-74
2023/02/24 06:06:51;;;;;;;2.38;1.60;;;2.60;99.90;;;;;;4959653;28;20073;-74
2023/02/24 06:09:18;;;;;;;3.58;1.70;;;2.70;99.90;;;;;;4948283;28;20260;-75
2023/02/24 06:11:46;;;;;;;2.70;1.50;;;2.80;99.90;;;;;;4958781;28;20657;-75
2023/02/24 06:14:13;;;;;;;2.25;1.63;;;2.80;99.90;;;;;;4964555;28;20070;-74
2023/02/24 06:16:40;;;;;;;3.95;1.60;;;2.80;99.90;;;;;;4958487;28;20494;-76
2023/02/24 06:19:08;;;;;;;1.20;0.85;;;2.90;99.90;;;;;;4941164;28;20102;-75
2023/02/24 06:21:36;;;;;;;1.75;1.35;;;2.90;99.90;;;;;;4945233;28;20082;-75
2023/02/24 06:24:04;;;;;;;1.52;1.40;;;2.80;99.90;;;;;;4975456;28;20070;-75
2023/02/24 06:26:32;;;;;;;2.05;1.20;;;2.90;99.90;;;;;;4957141;28;20058;-75
2023/02/24 06:28:59;;;;;;;2.45;1.15;;;2.90;99.90;;;;;;4971371;28;20161;-75
2023/02/24 06:31:26;;;;;;;1.65;1.08;;;2.90;99.90;;;;;;4942441;28;20102;-75
2023/02/24 06:33:53;;;;;;;2.40;1.23;;;2.90;99.90;;;;;;4958719;28;20050;-75
2023/02/24 06:36:20;;;;;;;1.33;1.00;;;2.90;99.90;;;;;;4960195;28;20146;-75
2023/02/24 06:38:48;;;;;;;3.33;1.73;;;2.90;99.90;;;;;;4957094;28;20047;-75
2023/02/24 06:41:15;;;;;;;1.92;1.30;;;2.90;99.90;;;;;;4961118;28;20058;-75
2023/02/24 06:43:43;;;;;;;1.98;1.20;;;2.80;99.90;;;;;;4957125;28;20117;-74
2023/02/24 06:46:12;;;;;;;2.30;1.25;;;2.80;99.90;;;;;;4943717;28;20383;-74
2023/02/24 06:48:40;;;;;;;2.90;1.38;;;2.80;99.90;;;;;;4985000;28;20047;-75
2023/02/24 06:51:14;;;;;;;1.85;1.15;;;2.80;99.90;;;;;;4982894;28;20105;-75
2023/02/24 06:53:44;;;;;;;1.42;1.05;;;2.80;99.90;;;;;;4958373;28;20299;-75
2023/02/24 06:56:16;;;;;;;1.73;0.80;;;2.80;99.90;;;;;;4945406;28;20051;-75
2023/02/24 06:58:45;;;;;;;1.10;0.88;;;2.80;99.90;;;;;;4975356;28;20138;-76
2023/02/24 07:01:16;;;;;;;1.17;0.82;;;2.80;99.90;;;;;;4968618;28;20394;-75
2023/02/24 07:04:01;;;;;;;1.02;0.90;;;2.80;99.90;;;;;;4971543;28;20125;-75
2023/02/24 07:06:30;;;;;;;1.50;1.00;;;2.90;99.90;;;;;;4946207;28;20392;-75
2023/02/24 07:08:57;;;;;;;1.58;0.80;;;2.90;99.90;;;;;;4939661;28;20051;-74
2023/02/24 07:11:24;;;;;;;1.15;0.85;;;2.90;99.90;;;;;;4919594;28;20039;-74
2023/02/24 07:13:53;;;;;;;1.50;0.90;;;3.00;99.90;;;;;;4962723;28;20130;-75
2023/02/24 07:16:23;;;;;;;2.65;1.02;;;3.00;99.90;;;;;;4960226;28;20142;-75
2023/02/24 07:18:55;;;;;;;1.45;0.85;;;3.10;99.90;;;;;;4956530;28;20054;-73
2023/02/24 07:21:23;;;;;;;1.90;1.08;;;3.10;99.90;;;;;;4977555;28;20433;-73
2023/02/24 07:23:55;;;;;;;2.15;1.23;;;3.10;99.90;;;;;;4963654;28;20241;-73
2023/02/24 07:26:25;;;;;;;1.15;0.95;;;3.10;99.90;;;;;;4946735;28;20061;-73
2023/02/24 07:28:53;;;;;;;1.60;1.20;;;3.10;99.90;;;;;;4956244;28;20145;-73
2023/02/24 07:31:22;;;;;;;1.55;1.00;;;3.10;99.90;;;;;;4959666;28;20082;-73
2023/02/24 07:33:55;;;;;;;2.83;0.90;;;3.10;99.90;;;;;;4957632;28;20101;-72
2023/02/24 07:36:22;;;;;;;1.58;1.00;;;3.10;99.90;;;;;;4955004;28;20117;-72
2023/02/24 07:38:53;;;;;;;1.23;0.80;;;3.10;99.90;;;;;;4971079;28;20222;-72
2023/02/24 07:41:21;;;;;;;1.20;0.90;;;3.10;99.90;;;;;;4960665;28;20050;-72
2023/02/24 07:43:52;;;;;;;1.25;0.93;;;3.10;99.90;;;;;;4973837;28;20078;-72
2023/02/24 07:46:23;;;;;;;2.50;0.98;;;3.20;99.90;;;;;;4974446;28;20325;-72
2023/02/24 07:48:54;;;;;;;2.53;1.25;;;3.20;99.90;;;;;;4941876;29;20058;-72
2023/02/24 07:51:22;;;;;;;3.22;1.63;;;3.20;99.90;;;;;;4974419;28;20043;-72
2023/02/24 07:53:55;;;;;;;3.65;1.73;;;3.20;99.90;;;;;;4955875;28;20059;-72
2023/02/24 07:56:31;;;;;;;4.00;1.92;;;3.20;99.90;;;;;;4952513;28;20050;-72
2023/02/24 07:59:01;;;;;;;2.75;1.63;;;3.30;99.90;;;;;;4961371;28;20058;-73
2023/02/24 08:01:29;;;;;;;2.28;1.58;;;3.30;99.90;;;;;;4974960;28;20058;-73
2023/02/24 08:04:06;;;;;;;1.92;1.33;;;3.40;99.90;;;;;;4970996;28;20063;-72
2023/02/24 08:06:38;;;;;;;3.97;1.55;;;3.60;99.90;;;;;;4976807;28;20130;-72
2023/02/24 08:09:15;;;;;;;2.67;1.20;;;3.70;99.90;;;;;;4975275;28;20510;-72
2023/02/24 08:11:44;;;;;;;2.67;1.30;;;3.70;99.90;;;;;;4971108;28;20060;-72
2023/02/24 08:14:14;;;;;;;3.15;1.42;;;3.80;99.90;;;;;;4949237;28;20051;-72
2023/02/24 08:16:58;;;;;;;2.63;1.33;;;3.80;99.90;;;;;;4961448;28;20137;-73
2023/02/24 08:19:38;;;;;;;2.15;1.38;;;3.90;99.90;;;;;;4931316;28;20078;-72
2023/02/24 08:22:18;;;;;;;2.55;1.38;;;3.90;99.90;;;;;;4961416;28;20117;-73
2023/02/24 08:25:04;;;;;;;2.97;1.83;;;4.00;99.90;;;;;;4964285;28;20124;-72
2023/02/24 08:27:37;;;;;;;3.92;1.67;;;4.00;99.90;;;;;;4980163;28;20465;-72
2023/02/24 08:30:06;;;;;;;4.35;1.92;;;4.00;99.90;;;;;;4979474;28;20130;-73
2023/02/24 08:32:37;;;;;;;3.95;1.77;;;4.10;99.90;;;;;;4972472;28;20097;-73
2023/02/24 08:35:13;;;;;;;1.95;1.33;;;4.20;99.90;;;;;;4960647;28;20050;-73
2023/02/24 08:37:45;;;;;;;1.98;1.05;;;4.20;99.90;;;;;;4960938;28;20129;-73
2023/02/24 08:43:31;;;;;;;3.05;1.52;;;4.30;99.90;;;;;;4947819;28;20157;-73
2023/02/24 08:46:16;;;;;;;2.72;1.30;;;4.40;99.90;;;;;;4945620;28;20042;-72
2023/02/24 08:48:48;;;;;;;5.25;1.60;;;4.50;99.90;;;;;;4974367;28;20146;-73
2023/02/24 08:51:21;;;;;;;2.05;1.25;;;4.60;99.90;;;;;;4960566;28;20494;-73
2023/02/24 08:53:53;;;;;;;2.72;1.50;;;4.70;99.90;;;;;;4958660;28;20057;-73
2023/02/24 08:56:26;;;;;;;3.92;1.83;;;4.70;99.90;;;;;;4960120;28;20078;-73
2023/02/24 08:58:57;;;;;;;3.28;1.83;;;4.70;99.90;;;;;;4976234;28;20070;-73
2023/02/24 09:01:33;;;;;;;4.13;2.35;;;4.80;99.90;;;;;;4944891;28;20094;-73
2023/02/24 09:04:07;;;;;;;3.45;2.08;;;4.90;99.90;;;;;;4937412;28;20050;-73
2023/02/24 09:06:56;;;;;;;2.80;1.55;;;5.00;99.90;;;;;;4995842;28;20060;-73
2023/02/24 09:09:40;;;;;;;2.47;1.40;;;5.10;99.90;;;;;;4991317;28;20436;-73
2023/02/24 09:12:09;;;;;;;1.77;1.20;;;5.20;99.90;;;;;;4965656;28;20415;-73
2023/02/24 09:14:36;;;;;;;2.58;1.70;;;5.30;99.90;;;;;;4951714;28;20055;-73
2023/02/24 09:17:04;;;;;;;3.67;1.75;;;5.40;99.90;;;;;;4971389;28;20054;-73
2023/02/24 09:22:31;;;;;;;3.08;2.00;;;5.50;99.90;;;;;;4970286;28;20133;-73
2023/02/24 09:25:39;;;;;;;4.80;1.70;;;5.50;99.90;;;;;;4952425;28;20043;-73
2023/02/24 09:27:54;;;;;;;3.08;1.88;;;5.60;99.90;;;;;;4942194;28;20066;-73
2023/02/24 09:30:36;;;;;;;2.38;1.67;;;5.70;99.90;;;;;;4956705;28;20436;-73
2023/02/24 09:33:16;;;;;;;2.42;1.65;;;5.80;99.90;;;;;;4966030;28;20050;-73
2023/02/24 09:36:11;;;;;;;2.38;1.55;;;5.90;99.90;;;;;;4994155;28;20089;-73
2023/02/24 09:41:52;;;;;;;2.42;1.50;;;6.10;99.90;;;;;;4993531;28;20057;-73
2023/02/24 09:44:22;;;;;;;3.10;2.13;;;6.20;99.90;;;;;;4980100;28;20391;-73
2023/02/24 09:47:07;;;;;;;4.40;2.15;;;6.20;99.90;;;;;;4993296;28;20340;-73
2023/02/24 09:49:45;;;;;;;4.35;2.20;;;6.20;99.90;;;;;;4955909;28;20047;-73
2023/02/24 09:52:17;;;;;;;2.97;2.25;;;6.30;99.90;;;;;;4943740;28;20065;-73
2023/02/24 09:57:53;;;;;;;4.88;2.72;;;6.50;99.90;;;;;;4955417;28;20258;-73
2023/02/24 10:00:23;;;;;;;4.05;1.83;;;6.50;99.90;;;;;;4942067;28;20051;-73
2023/02/24 10:03:18;;;;;;;3.75;2.45;;;6.60;99.90;;;;;;4943668;28;20058;-73
2023/02/24 10:05:57;;;;;;;2.97;2.42;;;6.70;99.90;;;;;;4959773;28;20093;-73
2023/02/24 10:08:31;;;;;;;3.70;2.00;;;6.80;99.90;;;;;;4959759;28;20046;-73
2023/02/24 10:11:07;;;;;;;5.20;1.70;;;6.80;99.90;;;;;;4955061;28;20050;-73
2023/02/24 10:13:36;;;;;;;2.95;2.05;;;6.90;99.90;;;;;;4959808;28;20481;-73
2023/02/24 10:16:07;;;;;;;3.60;2.42;;;7.00;99.90;;;;;;4972883;28;20130;-73
2023/02/24 10:18:44;;;;;;;4.63;2.20;;;7.00;99.90;;;;;;4958124;28;20592;-73
2023/02/24 10:21:29;;;;;;;3.05;2.08;;;7.10;99.90;;;;;;4959627;28;20074;-73
2023/02/24 10:24:36;;;;;;;4.10;1.92;;;7.20;99.90;;;;;;4967788;28;20474;-74
2023/02/24 10:27:22;;;;;;;2.90;1.90;;;7.40;99.90;;;;;;4934729;28;20055;-73
2023/02/24 10:29:59;;;;;;;4.47;2.10;;;7.50;99.90;;;;;;4944839;28;20451;-73
2023/02/24 10:32:45;;;;;;;3.08;1.85;;;7.50;99.90;;;;;;4959010;28;20114;-73
2023/02/24 10:35:18;;;;;;;2.63;1.67;;;7.50;99.90;;;;;;4926226;29;20111;-72
2023/02/24 10:37:45;;;;;;;2.60;1.50;;;7.50;99.90;;;;;;4928471;29;20084;-73
2023/02/24 10:40:23;;;;;;;2.88;1.90;;;7.50;99.90;;;;;;4942467;28;20050;-73
2023/02/24 10:42:53;;;;;;;1.60;1.40;;;7.50;99.90;;;;;;4948652;28;20050;-73
2023/02/24 10:45:25;;;;;;;2.13;1.48;;;7.50;99.90;;;;;;4997774;28;20061;-73
2023/02/24 10:47:56;;;;;;;1.63;1.25;;;7.60;99.90;;;;;;4999228;28;20078;-73
2023/02/24 10:50:27;;;;;;;2.58;1.58;;;7.60;99.90;;;;;;4997677;28;20647;-73
2023/02/24 10:58:43;;;;;;;5.05;2.45;;;7.70;99.90;;;;;;4958445;28;20054;-73
2023/02/24 11:01:19;;;;;;;3.03;2.10;;;7.80;99.90;;;;;;4962254;28;20055;-73
2023/02/24 11:04:00;;;;;;;4.50;2.83;;;7.80;99.90;;;;;;4957823;28;20055;-73
2023/02/24 11:17:25;;;;;;;2.47;1.48;;;8.10;99.90;;;;;;4956904;28;20090;-73
2023/02/24 11:20:00;;;;;;;3.78;2.33;;;8.10;99.90;;;;;;4942364;29;20055;-73
2023/02/24 11:22:31;;;;;;;4.82;1.92;;;8.10;99.90;;;;;;4943078;28;20158;-73
2023/02/24 11:25:06;;;;;;;3.58;2.08;;;8.20;99.90;;;;;;4976401;28;20362;-73
2023/02/24 11:27:33;;;;;;;3.92;2.40;;;8.20;99.90;;;;;;4946374;28;20067;-73
2023/02/24 11:30:18;;;;;;;3.50;2.42;;;8.20;99.90;;;;;;4961451;28;20509;-73
2023/02/24 11:33:09;;;;;;;4.43;2.60;;;8.20;99.90;;;;;;4958959;28;20059;-73
2023/02/24 11:35:56;;;;;;;2.67;2.15;;;8.00;99.90;;;;;;4961482;28;20053;-73
2023/02/24 11:38:42;;;;;;;3.72;2.33;;;8.00;99.90;;;;;;4942461;28;20232;-73
2023/02/24 11:41:39;;;;;;;6.00;2.42;;;8.10;99.90;;;;;;4956886;28;20047;-73
2023/02/24 11:44:16;;;;;;;3.70;2.20;;;8.00;99.90;;;;;;4941737;28;20069;-73
2023/02/24 11:46:49;;;;;;;4.88;2.80;;;7.90;99.90;;;;;;4962277;28;20073;-73
2023/02/24 11:49:27;;;;;;;3.28;2.17;;;8.00;99.90;;;;;;4975999;28;20054;-73
2023/02/24 11:51:53;;;;;;;3.88;2.60;;;8.00;99.90;;;;;;4958379;28;20051;-73
2023/02/24 11:54:22;;;;;;;4.82;2.92;;;8.00;99.90;;;;;;4961137;28;20401;-73
2023/02/24 11:56:53;;;;;;;4.38;2.75;;;8.00;99.90;;;;;;4945395;28;20137;-73
2023/02/24 11:59:38;;;;;;;4.53;2.70;;;8.10;99.90;;;;;;4961123;28;20149;-73
2023/02/24 12:02:37;;;;;;;4.53;2.78;;;8.20;99.90;;;;;;4960865;28;20169;-73
2023/02/24 12:05:13;;;;;;;5.75;3.20;;;8.20;99.90;;;;;;4974029;28;20122;-73
2023/02/24 12:08:00;;;;;;;3.13;2.45;;;8.30;99.90;;;;;;4972751;28;20522;-73
2023/02/24 12:10:35;;;;;;;5.00;2.90;;;8.30;99.90;;;;;;4943037;28;20054;-73
2023/02/24 12:13:13;;;;;;;5.63;3.50;;;8.20;99.90;;;;;;4961271;28;20059;-73
2023/02/24 12:16:09;;;;;;;3.28;2.38;;;8.30;99.90;;;;;;4944512;28;20251;-73
2023/02/24 12:18:45;;;;;;;3.60;2.22;;;8.40;99.90;;;;;;4947590;28;20046;-74
2023/02/24 12:21:14;;;;;;;4.18;2.60;;;8.50;99.90;;;;;;4944899;28;20051;-73
2023/02/24 12:23:45;;;;;;;3.50;2.35;;;8.50;99.90;;;;;;4961551;28;20053;-73
2023/02/24 12:26:20;;;;;;;4.13;2.80;;;8.60;99.90;;;;;;4960813;28;20082;-73
2023/02/24 12:29:06;;;;;;;4.03;2.83;;;8.70;99.90;;;;;;4945056;28;20397;-74
2023/02/24 12:31:36;;;;;;;4.30;3.20;;;8.90;99.90;;;;;;4962479;28;20366;-71
2023/02/24 12:34:08;;;;;;;5.88;3.45;;;8.90;99.90;;;;;;4972531;28;20433;-73
2023/02/24 12:37:06;;;;;;;5.13;3.22;;;9.10;99.90;;;;;;4961072;28;20578;-72
2023/02/24 12:39:44;;;;;;;4.05;2.60;;;9.20;99.90;;;;;;4972665;28;20342;-73
2023/02/24 12:42:33;;;;;;;4.55;2.75;;;9.40;99.90;;;;;;4960719;28;20061;-73
2023/02/24 12:45:10;;;;;;;4.22;2.70;;;9.50;99.90;;;;;;4961697;28;20077;-73
2023/02/24 12:47:58;;;;;;;4.38;3.03;;;9.70;99.90;;;;;;4948685;28;20043;-74
2023/02/24 12:51:00;;;;;;;4.18;2.85;;;9.80;99.90;;;;;;4960651;28;20278;-73
2023/02/24 12:53:40;;;;;;;4.47;2.90;;;9.80;99.90;;;;;;4955453;28;20055;-73
2023/02/24 12:56:21;;;;;;;5.85;3.60;;;10.30;99.90;;;;;;4952146;28;20490;-73
2023/02/24 12:58:49;;;;;;;5.57;3.20;;;10.70;99.90;;;;;;4964570;28;20047;-73
2023/02/24 13:01:24;;;;;;;4.55;3.30;;;11.00;99.90;;;;;;4964637;28;20054;-73
2023/02/24 13:04:12;;;;;;;5.35;3.17;;;11.40;99.90;;;;;;4951242;28;20473;-73
2023/02/24 13:06:57;;;;;;;4.05;2.97;;;11.90;99.90;;;;;;4952093;28;20066;-73
2023/02/24 13:09:30;;;;;;;4.22;2.83;;;12.10;99.90;;;;;;4948743;28;20058;-73
2023/02/24 13:12:26;;;;;;;5.65;3.00;;;12.10;99.90;;;;;;4966644;28;20565;-73
2023/02/24 13:14:52;;;;;;;5.10;3.38;;;12.10;99.90;;;;;;4956425;28;20415;-73
2023/02/24 13:17:25;;;;;;;4.85;2.95;;;11.80;99.90;;;;;;4935422;28;20059;-74
2023/02/24 13:19:54;;;;;;;7.45;3.70;;;11.60;99.90;;;;;;4964714;28;20051;-73
2023/02/24 13:22:25;;;;;;;5.07;2.90;;;11.50;99.90;;;;;;4971829;28;20166;-73
2023/02/24 13:25:07;;;;;;;7.03;3.25;;;11.20;99.90;;;;;;4953730;28;20641;-73
2023/02/24 13:27:36;;;;;;;6.70;2.95;;;10.90;99.90;;;;;;4940731;28;20055;-73
2023/02/24 13:30:16;;;;;;;6.00;2.90;;;10.70;99.90;;;;;;4939446;28;20047;-73
2023/02/24 13:32:46;;;;;;;5.82;3.30;;;10.40;99.90;;;;;;4952639;28;20465;-73
2023/02/24 13:35:16;;;;;;;3.80;2.75;;;10.20;99.90;;;;;;4959784;28;20059;-73
2023/02/24 13:37:44;;;;;;;4.93;2.95;;;10.10;99.90;;;;;;4954353;28;20170;-73
2023/02/24 13:40:32;;;;;;;4.15;3.28;;;10.10;99.90;;;;;;4938454;29;20391;-73
2023/02/24 13:43:00;;;;;;;5.75;3.10;;;10.10;99.90;;;;;;4939985;28;20202;-73
2023/02/24 13:45:34;;;;;;;5.40;3.83;;;10.00;99.90;;;;;;4957644;28;20092;-73
2023/02/24 13:48:17;;;;;;;4.55;3.03;;;9.80;99.90;;;;;;4951703;28;20054;-73
2023/02/24 13:51:16;;;;;;;5.53;2.78;;;9.80;99.90;;;;;;4973369;28;20415;-73
2023/02/24 13:54:12;;;;;;;4.85;2.33;;;9.80;99.90;;;;;;4958226;28;20379;-73
2023/02/24 13:57:21;;;;;;;6.28;2.65;;;9.80;99.90;;;;;;4943657;28;20479;-73
2023/02/24 14:00:28;;;;;;;5.38;2.33;;;9.70;99.90;;;;;;4969354;28;20137;-73
2023/02/24 14:02:55;;;;;;;3.15;2.38;;;9.70;99.90;;;;;;4963916;28;20138;-73
2023/02/24 14:05:40;;;;;;;3.53;1.58;;;9.60;99.90;;;;;;4960063;28;20532;-72
2023/02/24 14:08:07;;;;;;;3.35;1.77;;;9.80;99.90;;;;;;4957582;28;20051;-73